Hauptseite
METAR-TAF:

METAR-TAF

Flughäfen :

Hawarden, Wales

Hawarden Airport

Breite: 53-10N, Länge: 002-59W, Höhe: 10 m

Beobachtung

Neuester Wetterbericht von vor 17 Minuten, um 15:20 UTC
Wind 11 kt aus Süd/Südost
Temperatur 22°C
Luftfeuchtigkeit 60%
Luftdruck 1015 hPa
Sichtweite 10 km oder mehr
Leicht bewölkt in der Höhe von 4800 ft

METAR: EGNR 211520Z 16011KT 9999 FEW048 22/14 Q1015

Zeit: 16:37 (15:37 UTC)

Prognose

Neuester Wetterbericht von vor 1 Stunde und 41 Minuten, um 13:56 UTC
Gültige Prognose vom 21 um 15 UTC bis 21 um 18 UTC
Wind 8 kt aus Süd
Sichtweite 10 km oder mehr
Leicht bewölkt in der Höhe von 4000 ft
Wahrscheinlichkeit 30% :
Zeitweise
vom 21 um 16 UTC bis 21 um 18 UTC
Sichtweite: 4000 m
Gewitter, Starkregen, Reif oder Frostgraupel

TAF: EGNR 211356Z 2115/2118 18008KT 9999 FEW040 PROB30 TEMPO 2116/2118 4000 +TSRAGS

Wetterbeobachtungen und Prognosen von mehr als 4000 Flughäfen (METAR und TAF Bericht).

Die verfügbaren Stationen werden durch gelbe und rote Markierungen auf der Karte dargestellt.

Führen Sie die Maus auf sie, um den Namen der Station zu sehen.

Darauf klicken, um die Beobachtung von Wetterbeobachtungen und Prognosen zu sehen.

Um die Karte zu ändern : klicken Sie auf den grünen Tasten mit einem schwarzen Kreuz Zum Vergrößern, auf den grünen Button mit einem Gedankenstrich zu verkleinern, oder auf die grünen Pfeile für benachbarte Karten.


METAR-TAF: